Terminal Aerodrome Forecast
Issued by NWS Twin Cities, MN

Home | Current Version | Previous Version | Text Only | Print | Product List | Glossary Off
Versions: 1 2 3 4 5 6 7 8 9 10 11 12 13 14 15 16 17 18 19 20 21 22 23 24 25 26 27 28 29 30

934
FTUS43 KMPX 210731 AAB
TAFMSP
TAF AMD
KMSP 210731Z 2108/2212 27005KT P6SM SCT009
     FM210900 21003KT 4SM BR SCT008
      TEMPO 2110/2114 2SM BR SCT002
     FM211400 18008KT P6SM SCT150
     FM220000 21004KT P6SM SCT250=

USA.gov is the U.S. government's official web portal to all federal, state and local government web resources and services.